createdAt,value
2018-05-02T00:00:13.643Z,13.40
2018-05-02T00:02:40.674Z,13.30
2018-05-02T00:05:07.657Z,13.40
2018-05-02T00:07:34.653Z,13.40
2018-05-02T00:10:01.680Z,13.30
2018-05-02T00:12:28.674Z,13.10
2018-05-02T00:17:22.786Z,13.20
2018-05-02T00:19:49.796Z,13.20
2018-05-02T00:22:16.780Z,13.00
2018-05-02T00:24:43.817Z,13.00
2018-05-02T00:29:52.172Z,13.50
2018-05-02T00:32:19.163Z,13.30
2018-05-02T00:34:46.156Z,13.30
2018-05-02T00:37:13.554Z,13.20
2018-05-02T00:39:40.534Z,13.30
2018-05-02T00:42:07.519Z,13.30
2018-05-02T00:44:38.102Z,13.40
2018-05-02T00:47:05.096Z,13.50
2018-05-02T00:49:32.077Z,13.50
2018-05-02T00:51:59.087Z,13.60
2018-05-02T00:54:26.072Z,13.50
2018-05-02T00:56:57.260Z,13.40
2018-05-02T00:59:27.224Z,13.30
2018-05-02T01:04:21.270Z,13.00
2018-05-02T01:06:48.286Z,13.00
2018-05-02T01:09:15.273Z,13.10
2018-05-02T01:11:42.626Z,13.20
2018-05-02T01:14:09.298Z,13.10
2018-05-02T01:16:36.620Z,13.00
2018-05-02T01:19:03.589Z,13.00
2018-05-02T01:21:30.845Z,12.90
2018-05-02T01:23:57.837Z,13.00
2018-05-02T01:26:24.826Z,13.00
2018-05-02T01:28:51.872Z,12.90
2018-05-02T01:31:18.859Z,12.90
2018-05-02T01:33:45.863Z,13.00
2018-05-02T01:36:12.883Z,13.10
2018-05-02T01:38:39.859Z,13.10
2018-05-02T01:41:06.848Z,13.20
2018-05-02T01:46:14.831Z,13.30
2018-05-02T01:51:26.420Z,13.40
2018-05-02T01:53:53.460Z,13.40
2018-05-02T01:56:20.439Z,13.30
2018-05-02T01:58:47.431Z,13.20
2018-05-02T02:01:16.434Z,13.10
2018-05-02T02:03:41.435Z,13.10
2018-05-02T02:06:08.418Z,13.00
2018-05-02T02:08:36.169Z,13.10
2018-05-02T02:11:03.162Z,13.20
2018-05-02T02:13:30.151Z,13.20
2018-05-02T02:15:58.105Z,13.20
2018-05-02T02:18:26.026Z,13.30
2018-05-02T02:20:53.017Z,13.20
2018-05-02T02:23:20.027Z,13.20
2018-05-02T02:25:47.004Z,13.30
2018-05-02T02:28:14.804Z,13.20
2018-05-02T02:30:41.817Z,13.10
2018-05-02T02:35:36.829Z,13.10
2018-05-02T02:38:04.805Z,13.20
2018-05-02T02:42:58.866Z,13.20
2018-05-02T02:45:25.892Z,13.20
2018-05-02T02:47:52.880Z,13.10
2018-05-02T02:50:19.858Z,13.10
2018-05-02T02:52:48.412Z,12.90
2018-05-02T02:55:15.439Z,12.90
2018-05-02T02:57:42.386Z,12.80
2018-05-02T03:00:09.412Z,12.80
2018-05-02T03:02:36.393Z,12.90
2018-05-02T03:05:03.388Z,12.80
2018-05-02T03:07:30.401Z,12.70
2018-05-02T03:09:57.381Z,12.60
2018-05-02T03:12:24.367Z,12.60
2018-05-02T03:17:29.861Z,13.90
2018-05-02T03:19:56.877Z,12.50
2018-05-02T03:22:23.863Z,12.50
2018-05-02T03:24:50.866Z,12.50
2018-05-02T03:27:17.900Z,12.50
2018-05-02T03:29:44.880Z,12.50
2018-05-02T03:32:11.862Z,12.40
2018-05-02T03:34:38.888Z,12.30
2018-05-02T03:37:05.893Z,12.30
2018-05-02T03:41:59.989Z,12.30
2018-05-02T03:44:26.963Z,12.30
2018-05-02T03:46:53.944Z,12.20
2018-05-02T03:49:20.966Z,12.20
2018-05-02T03:51:47.950Z,12.30
2018-05-02T03:54:14.939Z,12.40
2018-05-02T03:56:42.799Z,12.40
2018-05-02T03:59:09.784Z,12.40
2018-05-02T04:01:48.672Z,12.40
2018-05-02T04:04:27.551Z,12.30
2018-05-02T04:12:08.803Z,12.30
2018-05-02T04:14:35.836Z,12.20
2018-05-02T04:17:02.819Z,12.20
2018-05-02T04:19:30.228Z,12.10
2018-05-02T04:21:57.216Z,12.10
2018-05-02T04:24:24.203Z,12.10
2018-05-02T04:26:51.661Z,12.10
2018-05-02T04:29:18.656Z,12.00
2018-05-02T04:31:45.642Z,12.00
2018-05-02T04:34:12.648Z,12.10
2018-05-02T04:36:39.643Z,12.00
2018-05-02T04:39:06.665Z,12.00
2018-05-02T04:41:33.699Z,12.10
2018-05-02T04:44:00.997Z,12.10
2018-05-02T04:46:28.233Z,12.10
2018-05-02T04:48:55.218Z,12.10
2018-05-02T04:51:22.194Z,12.10
2018-05-02T04:53:49.184Z,12.20
2018-05-02T04:56:17.146Z,12.10
2018-05-02T04:58:44.127Z,12.10
2018-05-02T05:01:11.933Z,12.00
2018-05-02T05:03:38.964Z,12.10
2018-05-02T05:06:05.955Z,12.10
2018-05-02T05:08:33.820Z,12.10
2018-05-02T05:11:01.671Z,12.10
2018-05-02T05:13:28.651Z,12.10
2018-05-02T05:15:55.633Z,12.10
2018-05-02T05:18:22.647Z,12.10
2018-05-02T05:20:49.633Z,12.10
2018-05-02T05:23:16.618Z,12.00
2018-05-02T05:25:43.641Z,12.10
2018-05-02T05:28:10.693Z,12.10
2018-05-02T05:30:40.322Z,12.00
2018-05-02T05:33:07.332Z,11.90
2018-05-02T05:40:39.905Z,12.80
2018-05-02T05:45:45.008Z,13.60
2018-05-02T05:48:11.987Z,11.90
2018-05-02T05:50:38.977Z,12.10
2018-05-02T05:53:06.655Z,12.10
2018-05-02T05:55:33.640Z,12.30
2018-05-02T05:58:00.844Z,12.20
2018-05-02T06:00:27.862Z,12.40
2018-05-02T06:02:54.863Z,12.50
2018-05-02T06:05:21.826Z,12.60
2018-05-02T06:07:48.854Z,12.70
2018-05-02T06:10:15.833Z,12.60
2018-05-02T06:12:42.819Z,12.90
2018-05-02T06:15:09.836Z,13.10
2018-05-02T06:17:36.820Z,13.30
2018-05-02T06:20:03.801Z,13.70
2018-05-02T06:22:30.824Z,13.60
2018-05-02T06:24:57.816Z,13.50
2018-05-02T06:27:24.806Z,13.30
2018-05-02T06:29:51.837Z,13.40
2018-05-02T06:32:19.633Z,13.70
2018-05-02T06:34:47.544Z,13.60
2018-05-02T06:39:41.636Z,13.50
2018-05-02T06:42:08.601Z,13.40
2018-05-02T06:44:36.438Z,13.30
2018-05-02T06:47:04.471Z,13.20
2018-05-02T06:49:31.459Z,13.20
2018-05-02T06:51:58.485Z,13.40
2018-05-02T06:54:25.474Z,13.60
2018-05-02T06:56:52.456Z,13.80
2018-05-02T06:59:19.497Z,13.90
2018-05-02T07:01:46.478Z,13.80
2018-05-02T07:04:14.271Z,13.80
2018-05-02T07:09:19.755Z,13.70
2018-05-02T07:11:46.844Z,13.80
2018-05-02T07:14:13.789Z,13.80
2018-05-02T07:16:41.592Z,14.00
2018-05-02T07:19:08.612Z,14.10
2018-05-02T07:21:35.597Z,14.10
2018-05-02T07:24:02.624Z,14.10
2018-05-02T07:26:29.591Z,14.00
2018-05-02T07:28:56.578Z,14.00
2018-05-02T07:31:23.555Z,14.30
2018-05-02T07:33:50.580Z,14.40
2018-05-02T07:36:18.395Z,14.60
2018-05-02T07:38:45.376Z,14.70
2018-05-02T07:41:12.421Z,15.00
2018-05-02T07:43:39.371Z,15.30
2018-05-02T07:48:33.753Z,15.20
2018-05-02T07:51:00.682Z,15.30
2018-05-02T07:53:27.675Z,15.30
2018-05-02T07:55:54.713Z,15.60
2018-05-02T07:58:21.695Z,15.80
2018-05-02T08:00:48.692Z,16.00
2018-05-02T08:03:15.718Z,16.20
2018-05-02T08:05:43.660Z,16.50
2018-05-02T08:08:10.648Z,16.50
2018-05-02T08:10:37.665Z,16.60
2018-05-02T08:13:04.637Z,16.40
2018-05-02T08:15:31.622Z,16.40
2018-05-02T08:17:58.631Z,16.60
2018-05-02T08:20:25.614Z,16.70
2018-05-02T08:22:52.595Z,16.70
2018-05-02T08:25:19.607Z,16.20
2018-05-02T08:27:46.584Z,16.00
2018-05-02T08:30:14.315Z,16.40
2018-05-02T08:32:41.335Z,16.00
2018-05-02T08:37:48.819Z,15.80
2018-05-02T08:40:15.815Z,16.00
2018-05-02T08:42:42.793Z,15.80
2018-05-02T08:45:09.817Z,15.90
2018-05-02T08:47:36.808Z,16.00
2018-05-02T08:50:04.732Z,16.30
2018-05-02T08:52:31.755Z,16.40
2018-05-02T08:54:58.742Z,16.30
2018-05-02T08:57:25.806Z,16.40
2018-05-02T08:59:52.743Z,16.40
2018-05-02T09:02:19.723Z,16.40
2018-05-02T09:04:46.716Z,16.00
2018-05-02T09:07:13.727Z,16.00
2018-05-02T09:09:40.710Z,16.00
2018-05-02T09:12:07.689Z,15.90
2018-05-02T09:14:35.545Z,15.70
2018-05-02T09:17:02.509Z,15.60
2018-05-02T09:19:29.492Z,15.80
2018-05-02T09:21:57.453Z,16.10
2018-05-02T09:24:24.433Z,15.90
2018-05-02T09:26:52.143Z,16.00
2018-05-02T09:29:19.166Z,16.10
2018-05-02T09:31:46.152Z,16.10
2018-05-02T09:34:13.139Z,16.30
2018-05-02T09:36:40.151Z,16.40
2018-05-02T09:39:07.153Z,16.50
2018-05-02T09:41:34.125Z,16.50
2018-05-02T09:44:01.141Z,16.50
2018-05-02T09:46:28.128Z,15.90
2018-05-02T09:48:55.160Z,16.40
2018-05-02T09:51:22.175Z,16.30
2018-05-02T09:53:49.168Z,16.60
2018-05-02T09:56:16.143Z,16.90
2018-05-02T10:03:49.542Z,17.10
2018-05-02T10:06:17.735Z,16.50
2018-05-02T10:08:44.712Z,16.60
2018-05-02T10:11:11.727Z,16.20
2018-05-02T10:13:38.709Z,16.40
2018-05-02T10:16:05.702Z,16.60
2018-05-02T10:18:32.794Z,16.70
2018-05-02T10:20:59.714Z,16.50
2018-05-02T10:23:26.698Z,16.60
2018-05-02T10:25:53.894Z,16.30
2018-05-02T10:28:20.714Z,16.30
2018-05-02T10:30:47.690Z,16.10
2018-05-02T10:33:15.520Z,16.50
2018-05-02T10:35:42.499Z,16.80
2018-05-02T10:40:36.610Z,16.60
2018-05-02T10:43:03.646Z,16.90
2018-05-02T10:45:30.887Z,17.40
2018-05-02T10:47:58.814Z,18.00
2018-05-02T10:50:25.804Z,18.50
2018-05-02T10:52:52.773Z,18.60
2018-05-02T10:55:19.803Z,19.10
2018-05-02T10:57:46.787Z,19.10
2018-05-02T11:00:13.768Z,18.90
2018-05-02T11:02:40.854Z,19.20
2018-05-02T11:05:07.837Z,19.50
2018-05-02T11:07:34.815Z,19.10
2018-05-02T11:12:28.891Z,19.40
2018-05-02T11:14:55.867Z,19.60
2018-05-02T11:17:23.685Z,19.60
2018-05-02T11:19:50.669Z,19.80
2018-05-02T11:22:18.368Z,20.00
2018-05-02T11:24:46.206Z,20.40
2018-05-02T11:29:55.553Z,21.20
2018-05-02T11:32:22.535Z,21.30
2018-05-02T11:34:50.448Z,20.40
2018-05-02T11:37:17.475Z,20.10
2018-05-02T11:39:44.460Z,20.80
2018-05-02T11:42:11.440Z,19.30
2018-05-02T11:44:39.420Z,21.10
2018-05-02T11:47:06.644Z,21.50
2018-05-02T11:49:33.625Z,21.70
2018-05-02T11:52:00.660Z,22.20
2018-05-02T11:54:27.638Z,22.30
2018-05-02T11:56:54.611Z,22.00
2018-05-02T11:59:21.631Z,22.20
2018-05-02T12:01:48.610Z,22.30
2018-05-02T12:04:15.614Z,22.40
2018-05-02T12:06:42.630Z,22.50
2018-05-02T12:09:09.605Z,22.30
2018-05-02T12:14:14.754Z,21.90
2018-05-02T12:16:41.741Z,21.80
2018-05-02T12:19:09.056Z,21.80
2018-05-02T12:21:37.167Z,21.80
2018-05-02T12:24:03.919Z,21.50
2018-05-02T12:26:31.719Z,21.20
2018-05-02T12:28:58.744Z,21.40
2018-05-02T12:31:25.727Z,21.40
2018-05-02T12:33:52.768Z,21.60
2018-05-02T12:36:20.733Z,21.90
2018-05-02T12:41:14.778Z,21.70
2018-05-02T12:43:41.793Z,21.80
2018-05-02T12:46:08.776Z,22.00
2018-05-02T12:48:35.760Z,22.00
2018-05-02T12:51:06.014Z,21.70
2018-05-02T12:53:32.996Z,21.50
2018-05-02T12:56:00.040Z,21.60
2018-05-02T12:58:26.989Z,21.90
2018-05-02T13:00:53.985Z,22.10
2018-05-02T13:03:21.701Z,22.30
2018-05-02T13:05:49.645Z,22.50
2018-05-02T13:08:16.686Z,22.70
2018-05-02T13:10:43.612Z,23.10
2018-05-02T13:13:10.624Z,23.50
2018-05-02T13:15:37.612Z,23.00
2018-05-02T13:18:04.600Z,23.20
2018-05-02T13:20:32.556Z,23.20
2018-05-02T13:22:59.607Z,23.40
2018-05-02T13:25:26.534Z,24.00
2018-05-02T13:27:55.423Z,23.80
2018-05-02T13:32:58.495Z,24.40
2018-05-02T13:35:25.483Z,24.50
2018-05-02T13:37:52.463Z,24.00
2018-05-02T13:40:19.478Z,24.00
2018-05-02T13:45:13.841Z,23.30
2018-05-02T13:47:40.820Z,23.30
2018-05-02T13:50:07.804Z,23.90
2018-05-02T13:52:35.541Z,23.90
2018-05-02T13:57:29.637Z,24.40
2018-05-02T13:59:56.865Z,24.60
2018-05-02T14:02:23.872Z,24.10
2018-05-02T14:04:50.858Z,24.60
2018-05-02T14:07:17.834Z,24.80
2018-05-02T14:09:45.740Z,24.80
2018-05-02T14:12:13.539Z,24.40
2018-05-02T14:14:40.532Z,24.00
2018-05-02T14:17:07.623Z,24.10
2018-05-02T14:19:35.345Z,24.60
2018-05-02T14:22:03.155Z,24.90
2018-05-02T14:26:58.054Z,24.70
2018-05-02T14:29:25.035Z,25.10
2018-05-02T14:31:52.061Z,25.00
2018-05-02T14:36:46.920Z,25.00
2018-05-02T14:39:14.659Z,25.20
2018-05-02T14:41:41.649Z,25.10
2018-05-02T14:44:08.636Z,24.70
2018-05-02T14:46:35.656Z,23.80
2018-05-02T14:49:03.579Z,24.20
2018-05-02T14:51:30.796Z,24.20
2018-05-02T14:59:04.205Z,23.60
2018-05-02T15:01:31.210Z,23.50
2018-05-02T15:03:58.170Z,23.50
2018-05-02T15:06:25.329Z,23.20
2018-05-02T15:08:52.160Z,23.50
2018-05-02T15:11:19.330Z,23.90
2018-05-02T15:13:46.170Z,24.10
2018-05-02T15:16:13.149Z,23.70
2018-05-02T15:18:40.128Z,23.60
2018-05-02T15:21:07.143Z,23.20
2018-05-02T15:23:34.934Z,22.90
2018-05-02T15:26:03.753Z,22.90
2018-05-02T15:28:30.765Z,23.30
2018-05-02T15:30:58.694Z,23.30
2018-05-02T15:33:26.492Z,23.40
2018-05-02T15:35:53.514Z,23.60
2018-05-02T15:38:20.504Z,23.70
2018-05-02T15:40:48.440Z,23.90
2018-05-02T15:43:15.464Z,23.90
2018-05-02T15:45:42.436Z,23.80
2018-05-02T15:48:10.690Z,23.60
2018-05-02T15:50:37.509Z,23.40
2018-05-02T15:53:04.485Z,23.30
2018-05-02T15:55:33.753Z,23.20
2018-05-02T15:58:01.876Z,22.90
2018-05-02T16:00:28.837Z,22.60
2018-05-02T16:02:55.854Z,22.90
2018-05-02T16:05:22.870Z,23.00
2018-05-02T16:07:49.869Z,22.70
2018-05-02T16:10:16.866Z,22.40
2018-05-02T16:12:43.893Z,22.70
2018-05-02T16:17:39.830Z,22.50
2018-05-02T16:20:06.848Z,22.70
2018-05-02T16:25:12.335Z,22.70
2018-05-02T16:27:39.411Z,22.80
2018-05-02T16:30:06.339Z,22.90
2018-05-02T16:32:33.367Z,22.80
2018-05-02T16:37:27.429Z,22.40
2018-05-02T16:39:54.439Z,22.40
2018-05-02T16:42:21.423Z,22.50
2018-05-02T16:44:48.681Z,22.60
2018-05-02T16:47:15.649Z,22.40
2018-05-02T16:49:42.635Z,22.20
2018-05-02T16:52:09.617Z,22.40
2018-05-02T16:54:36.639Z,22.40
2018-05-02T16:57:03.621Z,22.40
2018-05-02T17:01:58.636Z,22.10
2018-05-02T17:04:25.696Z,22.10
2018-05-02T17:06:52.613Z,22.10
2018-05-02T17:09:19.638Z,22.10
2018-05-02T17:14:24.816Z,22.00
2018-05-02T17:16:51.876Z,22.10
2018-05-02T17:19:18.789Z,21.80
2018-05-02T17:21:45.795Z,22.00
2018-05-02T17:24:12.788Z,22.00
2018-05-02T17:26:39.796Z,22.10
2018-05-02T17:29:06.818Z,22.00
2018-05-02T17:31:33.799Z,21.70
2018-05-02T17:34:00.783Z,21.50
2018-05-02T17:36:27.804Z,21.60
2018-05-02T17:38:54.784Z,21.40
2018-05-02T17:41:22.721Z,21.40
2018-05-02T17:43:49.752Z,21.30
2018-05-02T17:46:16.733Z,21.30
2018-05-02T17:48:43.778Z,21.40
2018-05-02T17:51:10.801Z,21.60
2018-05-02T17:53:37.965Z,21.50
2018-05-02T17:56:04.916Z,21.60
2018-05-02T17:58:32.951Z,21.50
2018-05-02T18:00:59.908Z,21.50
2018-05-02T18:03:26.884Z,21.40
2018-05-02T18:05:53.910Z,21.40
2018-05-02T18:08:21.048Z,21.30
2018-05-02T18:10:48.007Z,20.90
2018-05-02T18:13:15.084Z,20.70
2018-05-02T18:15:42.027Z,20.60
2018-05-02T18:18:09.023Z,20.50
2018-05-02T18:20:36.043Z,20.60
2018-05-02T18:23:03.037Z,20.60
2018-05-02T18:27:57.323Z,20.50
2018-05-02T18:30:24.236Z,20.50
2018-05-02T18:32:51.300Z,20.60
2018-05-02T18:35:18.272Z,20.60
2018-05-02T18:37:46.620Z,20.60
2018-05-02T18:42:53.005Z,20.50
2018-05-02T18:45:19.984Z,20.60
2018-05-02T18:47:46.969Z,20.60
2018-05-02T18:50:13.994Z,20.50
2018-05-02T18:52:40.993Z,20.30
2018-05-02T18:55:07.961Z,20.30
2018-05-02T18:57:34.975Z,20.30
2018-05-02T19:00:01.960Z,20.30
2018-05-02T19:02:28.950Z,20.10
2018-05-02T19:04:55.977Z,20.20
2018-05-02T19:07:22.965Z,20.30
2018-05-02T19:09:49.958Z,20.20
2018-05-02T19:14:55.917Z,20.30
2018-05-02T19:17:22.945Z,20.10
2018-05-02T19:19:49.937Z,20.00
2018-05-02T19:22:16.906Z,20.10
2018-05-02T19:24:43.917Z,20.00
2018-05-02T19:27:10.945Z,19.90
2018-05-02T19:29:41.262Z,19.60
2018-05-02T19:32:08.204Z,19.50
2018-05-02T19:34:35.199Z,19.20
2018-05-02T19:37:02.240Z,19.10
2018-05-02T19:39:29.251Z,19.00
2018-05-02T19:41:56.264Z,19.00
2018-05-02T19:44:23.436Z,18.80
2018-05-02T19:46:50.385Z,18.80
2018-05-02T19:49:17.378Z,18.80
2018-05-02T19:51:44.388Z,18.70
2018-05-02T19:54:11.424Z,18.70
2018-05-02T19:59:16.636Z,18.60
2018-05-02T20:01:43.629Z,18.70
2018-05-02T20:04:10.641Z,18.60
2018-05-02T20:06:37.684Z,18.70
2018-05-02T20:11:42.805Z,18.60
2018-05-02T20:14:09.788Z,18.70
2018-05-02T20:16:36.771Z,18.60
2018-05-02T20:19:03.847Z,18.60
2018-05-02T20:21:30.782Z,18.50
2018-05-02T20:23:57.758Z,18.50
2018-05-02T20:26:24.771Z,18.40
2018-05-02T20:28:51.759Z,18.30
2018-05-02T20:31:18.743Z,18.30
2018-05-02T20:33:45.770Z,18.20
2018-05-02T20:36:12.750Z,18.20
2018-05-02T20:38:39.764Z,18.20
2018-05-02T20:41:06.863Z,18.10
2018-05-02T20:43:33.805Z,18.10
2018-05-02T20:48:27.894Z,18.10
2018-05-02T20:50:54.888Z,18.10
2018-05-02T20:53:21.904Z,18.10
2018-05-02T20:55:48.930Z,18.00
2018-05-02T21:00:43.008Z,18.00
2018-05-02T21:03:10.045Z,17.90
2018-05-02T21:05:37.056Z,17.90
2018-05-02T21:08:04.066Z,17.90
2018-05-02T21:12:58.138Z,17.70
2018-05-02T21:15:25.113Z,17.80
2018-05-02T21:17:52.135Z,17.70
2018-05-02T21:20:19.112Z,17.70
2018-05-02T21:22:46.102Z,17.70
2018-05-02T21:25:13.368Z,17.70
2018-05-02T21:27:40.313Z,17.70
2018-05-02T21:30:07.316Z,17.70
2018-05-02T21:35:12.830Z,15.30
2018-05-02T21:37:39.868Z,17.70
2018-05-02T21:40:06.851Z,17.70
2018-05-02T21:42:33.835Z,17.60
2018-05-02T21:45:00.854Z,17.70
2018-05-02T21:47:27.858Z,17.80
2018-05-02T21:49:54.834Z,17.80
2018-05-02T21:52:21.853Z,17.80
2018-05-02T21:54:50.854Z,17.80
2018-05-02T21:57:19.288Z,17.70
2018-05-02T21:59:46.436Z,17.80
2018-05-02T22:02:15.443Z,17.80
2018-05-02T22:04:42.320Z,17.90
2018-05-02T22:07:09.348Z,17.90
2018-05-02T22:09:36.325Z,18.10
2018-05-02T22:12:03.304Z,18.20
2018-05-02T22:14:30.315Z,18.20
2018-05-02T22:17:08.014Z,18.30
2018-05-02T22:22:08.332Z,17.90
2018-05-02T22:27:14.065Z,17.60
2018-05-02T22:29:42.745Z,17.70
2018-05-02T22:32:10.171Z,17.70
2018-05-02T22:37:17.670Z,17.70
2018-05-02T22:39:45.885Z,17.70
2018-05-02T22:42:12.879Z,17.60
2018-05-02T22:44:39.911Z,17.30
2018-05-02T22:47:07.835Z,17.10
2018-05-02T22:49:34.822Z,17.10
2018-05-02T22:52:01.834Z,17.20
2018-05-02T22:54:31.593Z,17.20
2018-05-02T22:56:55.803Z,17.30
2018-05-02T22:59:22.840Z,17.30
2018-05-02T23:01:49.824Z,17.30
2018-05-02T23:04:16.801Z,17.20
2018-05-02T23:06:43.875Z,17.20
2018-05-02T23:09:10.795Z,17.20
2018-05-02T23:11:37.778Z,17.00
2018-05-02T23:14:04.803Z,16.90
2018-05-02T23:16:31.769Z,16.90
2018-05-02T23:18:58.748Z,17.00
2018-05-02T23:21:25.963Z,17.10
2018-05-02T23:23:53.665Z,17.20
2018-05-02T23:26:20.977Z,17.20
2018-05-02T23:28:48.000Z,17.10
2018-05-02T23:31:14.991Z,17.10
2018-05-02T23:33:44.333Z,17.10
2018-05-02T23:36:10.050Z,17.10
2018-05-02T23:38:37.867Z,17.20
2018-05-02T23:43:31.958Z,17.10
2018-05-02T23:45:58.945Z,17.10
2018-05-02T23:48:25.923Z,17.10
2018-05-02T23:50:52.947Z,17.10
2018-05-02T23:53:19.929Z,17.00
2018-05-02T23:55:46.910Z,17.10
